Time;durP1;ratioP1;P1;durP2;ratioP2;P2;SDS_P1;SDS_P2;PMS_P1;PMS_P2;Temp;Humidity;BMP_temperature;BMP_pressure;BME280_temperature;BME280_humidity;BME280_pressure;Samples;Min_cycle;Max_cycle;Signal;HPM_P1;HPM_P2
2023/05/28 00:01:26;;;;;;;4.93;3.10;;;11.60;49.00;;;11.31;53.98;98181.06;5044588;28;20499;-80
2023/05/28 00:03:53;;;;;;;4.73;2.57;;;11.50;49.60;;;11.26;53.85;98199.81;5013386;28;20483;-80
2023/05/28 00:06:22;;;;;;;6.07;3.27;;;11.50;49.90;;;11.42;53.88;98212.00;5009742;28;20455;-80
2023/05/28 00:08:51;;;;;;;4.50;3.10;;;11.50;50.50;;;11.48;54.37;98197.63;5035403;28;20459;-82
2023/05/28 00:11:18;;;;;;;4.90;3.90;;;11.60;50.80;;;11.38;54.73;98194.56;5025653;28;20486;-80
2023/05/28 00:13:45;;;;;;;3.07;2.37;;;11.50;51.10;;;10.72;55.25;98118.09;5016225;28;20447;-80
2023/05/28 00:16:14;;;;;;;3.53;2.40;;;11.40;51.60;;;10.34;55.41;98068.34;5021820;28;20469;-80
2023/05/28 00:18:41;;;;;;;5.67;3.00;;;11.30;52.10;;;10.95;56.13;98196.00;5027421;28;20458;-81
2023/05/28 00:21:08;;;;;;;6.10;2.93;;;11.20;52.40;;;11.02;55.64;98202.22;5007922;28;20485;-79
2023/05/28 00:23:36;;;;;;;4.70;2.90;;;11.10;52.80;;;11.00;55.42;98200.75;5011146;28;20455;-80
2023/05/28 00:26:10;;;;;;;5.87;4.10;;;11.10;52.20;;;10.59;55.08;98146.00;5022428;28;20463;-78
2023/05/28 00:28:37;;;;;;;5.30;2.93;;;11.10;52.70;;;10.84;55.56;98188.53;5024763;28;20520;-80
2023/05/28 00:31:04;;;;;;;4.73;3.13;;;11.00;52.70;;;10.88;55.31;98193.31;5002961;28;20533;-80
2023/05/28 00:33:32;;;;;;;6.23;3.00;;;11.00;53.30;;;10.80;56.60;98182.75;5007475;28;20505;-80
2023/05/28 00:35:59;;;;;;;4.37;3.10;;;11.00;53.80;;;10.79;55.90;98191.91;5010832;28;20460;-79
2023/05/28 00:38:26;;;;;;;4.90;3.37;;;10.90;54.00;;;10.67;56.54;98180.88;5017536;28;20874;-81
2023/05/28 00:40:54;;;;;;;5.13;3.00;;;10.80;54.10;;;10.77;56.92;98186.69;5019042;28;20547;-81
2023/05/28 00:43:23;;;;;;;4.90;3.30;;;10.80;54.50;;;10.80;55.82;98184.59;5022057;28;20467;-83
2023/05/28 00:45:51;;;;;;;7.37;3.20;;;10.90;54.30;;;10.77;55.81;98196.69;5021261;28;20550;-80
2023/05/28 00:48:19;;;;;;;3.37;2.73;;;10.80;54.20;;;10.76;55.91;98195.84;5021847;28;20460;-82
2023/05/28 00:50:48;;;;;;;4.47;3.10;;;10.90;54.80;;;10.75;56.22;98183.38;5017505;28;20558;-82
2023/05/28 00:53:15;;;;;;;6.17;3.40;;;10.90;54.80;;;10.90;57.31;98188.50;5013206;28;20478;-81
2023/05/28 00:55:42;;;;;;;4.70;3.17;;;10.90;55.50;;;10.69;56.86;98184.25;5015108;28;20815;-80
2023/05/28 00:58:11;;;;;;;5.53;2.80;;;10.90;55.30;;;10.72;56.67;98189.22;5011150;28;20470;-81
2023/05/28 01:00:43;;;;;;;5.07;3.30;;;10.90;55.60;;;10.57;57.08;98175.94;5042519;28;20619;-79
2023/05/28 01:03:10;;;;;;;4.73;3.10;;;10.80;56.00;;;10.57;57.21;98185.94;5037142;28;21064;-80
2023/05/28 01:05:38;;;;;;;3.63;2.90;;;10.80;55.90;;;10.59;56.82;98173.03;5019217;28;20463;-80
2023/05/28 01:08:07;;;;;;;6.07;2.90;;;10.70;56.40;;;10.49;57.02;98158.06;5013855;28;20554;-81
2023/05/28 01:10:35;;;;;;;4.93;2.97;;;10.70;56.20;;;10.62;57.63;98178.84;5012180;28;20467;-82
2023/05/28 01:13:07;;;;;;;4.23;2.90;;;10.80;56.70;;;10.53;57.58;98168.47;5006893;28;20870;-80
2023/05/28 01:15:37;;;;;;;4.97;3.47;;;10.70;56.50;;;10.60;57.24;98172.00;4999879;28;20512;-80
2023/05/28 01:18:06;;;;;;;3.97;3.20;;;10.70;56.60;;;10.10;57.28;98077.97;5014421;28;20490;-80
2023/05/28 01:20:35;;;;;;;7.27;3.17;;;10.80;56.60;;;10.29;57.76;98133.78;5023883;28;20474;-82
2023/05/28 01:23:08;;;;;;;4.70;2.97;;;10.80;57.20;;;10.63;57.98;98166.16;5005959;28;20469;-81
2023/05/28 01:25:38;;;;;;;5.47;3.03;;;10.80;57.30;;;10.59;57.23;98163.03;5020267;28;20447;-80
2023/05/28 01:28:13;;;;;;;9.53;3.60;;;10.80;57.20;;;10.53;57.36;98173.84;5021146;28;20549;-80
2023/05/28 01:30:41;;;;;;;6.70;3.30;;;10.70;57.40;;;10.48;58.25;98172.63;5025725;28;21017;-80
2023/05/28 01:33:11;;;;;;;7.60;3.10;;;10.60;58.00;;;10.27;58.82;98162.06;4995708;28;20477;-81
2023/05/28 01:35:38;;;;;;;8.93;3.47;;;10.60;58.40;;;10.25;59.23;98172.25;5001847;28;20466;-82
2023/05/28 01:38:05;;;;;;;4.57;3.30;;;10.40;59.00;;;10.12;59.47;98163.09;5001384;28;20455;-80
2023/05/28 01:40:39;;;;;;;5.80;3.50;;;10.30;59.70;;;10.03;59.50;98181.38;5005702;28;20505;-81
2023/05/28 01:43:07;;;;;;;3.93;2.97;;;10.30;60.10;;;9.96;59.92;98153.56;4988761;28;20546;-80
2023/05/28 01:45:35;;;;;;;5.40;3.40;;;10.20;60.60;;;10.11;58.88;98168.69;5002544;28;20458;-80
2023/05/28 01:48:03;;;;;;;3.70;2.97;;;10.20;61.10;;;10.21;59.07;98172.63;5023064;28;20533;-81
2023/05/28 01:50:32;;;;;;;6.27;4.07;;;10.30;61.30;;;10.02;59.43;98162.69;5001854;28;20474;-80
2023/05/28 01:53:00;;;;;;;5.00;3.20;;;10.30;61.30;;;10.12;60.31;98173.06;5023971;28;20546;-80
2023/05/28 01:55:27;;;;;;;6.30;2.40;;;10.20;61.90;;;10.00;59.99;98175.56;5020295;28;20517;-80
2023/05/28 01:57:59;;;;;;;6.50;2.80;;;10.20;61.90;;;9.95;59.64;98137.59;5025924;28;20466;-81
2023/05/28 02:00:27;;;;;;;4.20;2.63;;;10.30;62.20;;;10.11;59.80;98160.59;5009493;28;21340;-81
2023/05/28 02:02:55;;;;;;;5.20;3.20;;;10.30;61.90;;;10.05;59.74;98179.31;5024555;28;20552;-82
2023/05/28 02:05:23;;;;;;;3.77;2.80;;;10.30;62.20;;;9.99;60.99;98163.09;5014350;28;20471;-80
2023/05/28 02:07:50;;;;;;;3.60;3.30;;;10.20;63.50;;;9.94;60.69;98160.22;5025107;28;20458;-80
2023/05/28 02:10:18;;;;;;;4.37;2.73;;;10.20;63.80;;;9.84;61.80;98174.94;4979730;28;20460;-79
2023/05/28 02:12:45;;;;;;;6.13;3.57;;;10.10;64.30;;;9.75;61.18;98173.47;5022740;28;20463;-78
2023/05/28 02:15:14;;;;;;;4.93;3.30;;;10.00;64.80;;;9.78;61.40;98167.66;4986489;28;20496;-80
2023/05/28 02:17:43;;;;;;;6.83;3.77;;;9.90;66.40;;;9.49;61.47;98121.16;4998169;28;20443;-83
2023/05/28 02:20:11;;;;;;;6.20;3.23;;;10.00;65.40;;;9.78;61.35;98156.84;5012462;28;20647;-81
2023/05/28 02:22:39;;;;;;;4.97;3.00;;;10.00;65.40;;;9.37;61.30;98093.16;5027311;28;20468;-80
2023/05/28 02:25:09;;;;;;;4.57;3.13;;;10.00;65.20;;;9.67;61.68;98165.59;5005361;28;20730;-81
2023/05/28 02:27:37;;;;;;;5.80;3.57;;;9.90;67.00;;;9.67;62.46;98152.91;5023930;28;20548;-80
2023/05/28 02:30:06;;;;;;;4.40;3.10;;;9.80;67.00;;;9.63;62.01;98155.22;5021436;28;20474;-81
2023/05/28 02:32:36;;;;;;;4.90;2.97;;;9.80;67.50;;;9.62;61.85;98153.53;5006737;28;20462;-79
2023/05/28 02:35:04;;;;;;;6.47;2.93;;;9.80;67.60;;;9.31;62.54;98109.09;5028663;28;20980;-80
2023/05/28 02:37:31;;;;;;;4.67;3.20;;;9.80;68.60;;;9.45;62.76;98146.88;5032167;28;20478;-81
2023/05/28 02:39:59;;;;;;;4.50;3.47;;;9.70;68.80;;;9.51;62.75;98156.84;5025675;28;20506;-82
2023/05/28 02:42:26;;;;;;;4.03;2.73;;;9.70;68.80;;;9.51;62.79;98151.47;5006847;28;20500;-81
2023/05/28 02:44:53;;;;;;;2.93;2.73;;;9.70;69.30;;;9.68;61.95;98140.28;5017699;28;20469;-83
2023/05/28 02:47:21;;;;;;;7.70;3.33;;;9.80;69.30;;;9.70;62.58;98149.00;5018184;28;20472;-83
2023/05/28 02:49:50;;;;;;;3.50;3.10;;;9.90;69.10;;;9.81;61.45;98145.69;5051178;28;20474;-83
2023/05/28 02:52:20;;;;;;;5.37;3.07;;;10.00;68.00;;;9.91;62.13;98146.06;5035973;28;20462;-84
2023/05/28 02:54:47;;;;;;;5.33;3.40;;;10.10;67.40;;;9.88;61.36;98134.88;5017605;28;20454;-82
2023/05/28 02:57:15;;;;;;;7.87;3.20;;;10.10;67.60;;;9.91;61.60;98140.69;5027764;28;20455;-80
2023/05/28 02:59:42;;;;;;;5.63;3.00;;;10.10;67.50;;;9.84;61.89;98123.66;5038609;28;20470;-82
2023/05/28 03:02:09;;;;;;;7.00;3.40;;;10.20;67.40;;;9.90;62.08;98139.00;5029077;28;20462;-77
2023/05/28 03:04:37;;;;;;;4.90;3.20;;;10.20;68.10;;;9.87;62.42;98152.94;5022718;28;20455;-79
2023/05/28 03:07:07;;;;;;;6.93;3.37;;;10.10;68.30;;;9.73;62.71;98153.97;5005002;28;20462;-81
2023/05/28 03:09:37;;;;;;;6.60;3.87;;;10.00;68.30;;;9.68;62.67;98145.66;5023738;28;20455;-81
2023/05/28 03:12:05;;;;;;;6.37;3.57;;;9.90;69.60;;;9.72;62.85;98157.69;5018724;28;20946;-82
2023/05/28 03:14:32;;;;;;;6.93;3.50;;;9.80;69.90;;;9.74;62.96;98156.47;5016835;28;20508;-81
2023/05/28 03:17:00;;;;;;;4.30;3.23;;;9.90;69.80;;;9.85;62.47;98163.09;5004396;28;20458;-80
2023/05/28 03:19:27;;;;;;;5.97;3.63;;;10.00;68.80;;;9.63;62.82;98141.72;5026439;28;20921;-81
2023/05/28 03:21:55;;;;;;;4.73;3.10;;;9.90;70.10;;;9.69;62.84;98158.13;5008303;28;20609;-81
2023/05/28 03:24:24;;;;;;;8.10;3.60;;;9.80;70.20;;;9.62;63.95;98152.72;5022423;28;20577;-84
2023/05/28 03:26:54;;;;;;;11.20;3.50;;;9.80;70.90;;;9.52;64.07;98158.50;5006343;28;20964;-81
2023/05/28 03:29:21;;;;;;;6.60;3.60;;;9.70;71.20;;;9.51;63.56;98164.94;5014780;28;20447;-81
2023/05/28 03:31:48;;;;;;;5.30;3.57;;;9.60;71.50;;;9.57;64.27;98166.81;5028495;28;20467;-81
2023/05/28 03:34:16;;;;;;;5.10;3.23;;;9.70;72.00;;;9.57;64.75;98169.50;5011095;28;20593;-80
2023/05/28 03:36:43;;;;;;;6.27;3.57;;;9.70;72.10;;;9.36;64.00;98130.06;5000225;28;20505;-80
2023/05/28 03:39:11;;;;;;;5.37;3.00;;;9.70;72.30;;;9.57;64.46;98160.59;5026950;28;20462;-79
2023/05/28 03:41:40;;;;;;;5.93;3.67;;;9.70;72.50;;;9.65;64.66;98160.38;5008537;28;20474;-81
2023/05/28 03:44:08;;;;;;;5.67;3.50;;;9.80;72.70;;;9.73;64.17;98157.50;5027128;28;20459;-79
2023/05/28 03:46:35;;;;;;;6.93;3.50;;;9.90;72.40;;;9.73;63.55;98165.59;5024142;28;20467;-81
2023/05/28 03:49:03;;;;;;;5.30;3.43;;;9.90;72.10;;;9.77;63.51;98149.81;5024668;28;20994;-80
2023/05/28 03:51:31;;;;;;;5.67;3.67;;;10.00;70.90;;;9.68;63.38;98130.28;5010019;28;20489;-80
2023/05/28 03:54:00;;;;;;;5.20;3.30;;;10.10;70.80;;;10.01;62.55;98155.63;5009043;28;20470;-80
2023/05/28 03:56:30;;;;;;;6.03;3.53;;;10.20;70.60;;;9.91;62.52;98142.56;4998335;28;20463;-79
2023/05/28 03:58:59;;;;;;;5.67;3.10;;;10.30;69.80;;;9.97;62.54;98132.81;5003329;28;20475;-81
2023/05/28 04:01:26;;;;;;;5.97;3.53;;;10.30;69.60;;;10.03;62.85;98149.00;5004977;28;20508;-80
2023/05/28 04:03:55;;;;;;;4.50;3.30;;;10.30;69.90;;;10.07;63.13;98147.53;5025498;28;20466;-81
2023/05/28 04:06:23;;;;;;;5.07;2.87;;;10.30;70.20;;;10.16;63.35;98126.53;5004401;28;20979;-81
2023/05/28 04:08:51;;;;;;;5.03;4.10;;;10.50;70.50;;;10.69;61.59;98135.59;5023265;28;20469;-82
2023/05/28 04:11:18;;;;;;;5.87;3.53;;;10.90;69.80;;;11.28;59.77;98126.56;5011470;28;20452;-82
2023/05/28 04:13:46;;;;;;;5.97;3.90;;;11.50;68.60;;;11.65;57.44;98063.69;5026833;28;20482;-80
2023/05/28 04:16:15;;;;;;;7.07;4.03;;;12.30;66.20;;;12.83;55.90;98139.59;5023468;28;20474;-81
2023/05/28 04:18:43;;;;;;;5.23;3.00;;;13.20;64.50;;;13.47;54.08;98132.94;5005184;28;20879;-80
2023/05/28 04:21:12;;;;;;;4.87;3.47;;;14.00;61.90;;;14.01;52.38;98129.38;5014834;28;20975;-80
2023/05/28 04:23:40;;;;;;;5.00;3.50;;;14.60;59.30;;;14.24;51.17;98141.31;5007760;28;21657;-78
2023/05/28 04:26:07;;;;;;;5.10;3.80;;;15.00;57.20;;;14.50;50.96;98136.47;5008038;28;20454;-79
2023/05/28 04:28:34;;;;;;;4.80;3.20;;;15.30;56.80;;;15.08;49.79;98139.31;5019976;28;20543;-79
2023/05/28 04:31:03;;;;;;;7.63;3.40;;;15.80;55.90;;;15.62;48.15;98136.25;5011198;28;20983;-77
2023/05/28 04:33:32;;;;;;;5.93;3.63;;;16.40;54.10;;;15.93;46.26;98134.06;5021317;28;20537;-80
2023/05/28 04:36:01;;;;;;;8.70;3.33;;;16.80;52.30;;;15.56;47.50;98127.16;5003971;28;20510;-78
2023/05/28 04:38:31;;;;;;;8.40;3.67;;;16.80;51.90;;;15.35;47.87;98141.44;5020126;28;20502;-79
2023/05/28 04:40:59;;;;;;;7.17;3.53;;;16.50;51.50;;;15.47;47.97;98125.06;5015251;28;20564;-81
2023/05/28 04:43:29;;;;;;;6.10;2.90;;;16.60;51.80;;;15.93;46.94;98130.50;5035918;28;20473;-81
2023/05/28 04:45:58;;;;;;;6.30;3.33;;;16.60;51.70;;;16.52;45.48;98134.66;5021087;28;20468;-80
2023/05/28 04:48:26;;;;;;;4.70;2.57;;;16.90;51.30;;;16.21;46.32;98129.56;5022084;28;20465;-79
2023/05/28 04:50:54;;;;;;;5.10;3.20;;;17.00;50.70;;;15.95;46.85;98133.81;5008120;28;20454;-82
2023/05/28 04:53:22;;;;;;;5.57;3.00;;;17.00;50.70;;;15.46;47.63;98113.34;5005811;28;20465;-79
2023/05/28 04:55:50;;;;;;;8.90;3.70;;;16.70;51.00;;;16.40;45.70;98141.03;5021103;28;20902;-79
2023/05/28 04:58:17;;;;;;;4.17;3.10;;;16.80;50.60;;;16.51;45.63;98141.19;5017544;28;20942;-83
2023/05/28 05:00:44;;;;;;;7.40;3.70;;;17.10;50.60;;;16.25;45.24;98076.22;5011151;28;20477;-83
2023/05/28 05:03:12;;;;;;;6.83;3.43;;;17.40;50.20;;;17.59;43.03;98132.63;5015195;28;20496;-85
2023/05/28 05:05:40;;;;;;;6.33;3.40;;;18.10;49.80;;;17.91;42.99;98148.22;5024004;28;20964;-81
2023/05/28 05:08:11;;;;;;;5.43;3.33;;;18.30;49.40;;;16.98;44.17;98137.13;5012754;28;20939;-82
2023/05/28 05:10:39;;;;;;;5.13;3.47;;;18.20;49.00;;;16.73;45.69;98148.56;5021632;28;22881;-70
2023/05/28 05:13:06;;;;;;;6.13;3.20;;;17.80;49.50;;;17.00;44.75;98129.56;5003892;28;21069;-71
2023/05/28 05:15:33;;;;;;;4.73;3.20;;;17.90;49.80;;;16.86;45.03;98142.72;4997257;28;20463;-73
2023/05/28 05:18:01;;;;;;;5.87;3.10;;;17.80;49.10;;;16.19;45.32;98065.50;5009395;28;20518;-70
2023/05/28 05:20:29;;;;;;;3.30;3.00;;;17.70;49.50;;;17.16;44.81;98144.22;4998217;28;20884;-70
2023/05/28 05:22:56;;;;;;;5.30;3.57;;;17.80;49.80;;;17.21;44.81;98144.28;4999297;28;20550;-70
2023/05/28 05:25:25;;;;;;;6.10;3.00;;;18.00;49.40;;;18.01;42.68;98140.13;4997724;28;20548;-70
2023/05/28 05:27:52;;;;;;;6.57;3.50;;;18.50;49.00;;;17.39;43.73;98136.81;5012205;28;20473;-68
2023/05/28 05:30:20;;;;;;;4.97;3.27;;;18.40;48.50;;;17.45;44.36;98141.25;4997227;28;20452;-69
2023/05/28 05:32:47;;;;;;;7.70;3.60;;;18.20;49.10;;;17.28;44.26;98122.22;4995856;28;20744;-76
2023/05/28 05:35:16;;;;;;;6.03;3.10;;;18.50;48.70;;;17.81;43.30;98148.97;5000955;28;20457;-75
2023/05/28 05:37:43;;;;;;;4.13;3.40;;;18.70;48.70;;;18.06;43.29;98142.91;5021950;28;20466;-77
2023/05/28 05:40:12;;;;;;;5.80;3.50;;;19.10;48.50;;;18.97;41.02;98148.38;5026045;28;20451;-74
2023/05/28 05:42:41;;;;;;;7.67;3.87;;;19.80;47.90;;;19.20;40.95;98149.03;4999714;28;20452;-77
2023/05/28 05:45:10;;;;;;;4.30;3.20;;;19.90;47.50;;;18.45;42.19;98154.69;5018993;28;20461;-74
2023/05/28 05:47:37;;;;;;;6.90;3.30;;;19.90;47.60;;;18.55;41.75;98154.72;5001280;28;20456;-73
2023/05/28 05:50:06;;;;;;;6.40;3.40;;;19.60;47.50;;;18.53;42.31;98156.91;5026042;28;20981;-75
2023/05/28 05:52:33;;;;;;;4.67;3.47;;;19.50;47.70;;;19.15;40.93;98159.97;5006748;28;20455;-74
2023/05/28 05:55:01;;;;;;;7.53;3.83;;;19.90;47.50;;;19.32;40.66;98156.19;5022772;28;20450;-73
2023/05/28 05:57:28;;;;;;;4.73;3.07;;;20.10;47.30;;;19.92;39.46;98144.78;5018933;28;20477;-75
2023/05/28 05:59:56;;;;;;;7.97;4.07;;;20.30;47.30;;;20.63;39.62;98151.31;5007786;28;21027;-76
2023/05/28 06:02:25;;;;;;;4.13;3.47;;;20.90;47.80;;;21.36;39.38;98162.03;5005574;28;20533;-77
2023/05/28 06:04:52;;;;;;;5.50;3.80;;;21.60;48.50;;;21.54;38.00;98146.00;5008246;28;20950;-76
2023/05/28 06:07:20;;;;;;;6.83;3.67;;;22.00;47.30;;;20.61;38.14;98142.53;5023211;28;20458;-75
2023/05/28 06:09:48;;;;;;;3.87;3.00;;;21.80;46.10;;;20.87;38.66;98139.75;5004849;28;20454;-77
2023/05/28 06:12:16;;;;;;;5.47;3.60;;;22.20;46.40;;;21.05;38.78;98131.97;5024927;28;20471;-75
2023/05/28 06:14:44;;;;;;;5.73;3.07;;;22.50;46.40;;;19.57;39.80;98149.13;5007929;28;20470;-76
2023/05/28 06:17:13;;;;;;;5.00;3.10;;;21.80;45.20;;;20.49;38.23;98145.59;5007642;28;20450;-77
2023/05/28 06:19:41;;;;;;;3.50;2.70;;;21.20;45.70;;;19.66;39.97;98151.06;5018946;28;20800;-73
2023/05/28 06:22:09;;;;;;;7.07;3.20;;;20.90;45.90;;;18.31;42.68;98155.13;5024058;28;21106;-66
2023/05/28 06:24:38;;;;;;;6.00;3.30;;;19.80;46.20;;;18.30;43.60;98152.66;5019754;28;20462;-67
2023/05/28 06:27:06;;;;;;;4.80;3.30;;;19.20;47.30;;;17.88;43.82;98151.47;5016111;28;20461;-68
2023/05/28 06:29:33;;;;;;;4.57;2.90;;;18.50;47.40;;;17.79;44.24;98143.75;4999905;28;20556;-72
2023/05/28 06:32:00;;;;;;;9.23;4.00;;;18.10;48.00;;;18.02;44.08;98146.38;5005817;28;20961;-73
2023/05/28 06:34:29;;;;;;;4.53;2.63;;;18.20;48.40;;;17.56;44.81;98144.91;5013661;28;20469;-72
2023/05/28 06:36:56;;;;;;;5.07;3.40;;;18.00;48.50;;;17.30;45.82;98147.38;4995413;28;21014;-72
2023/05/28 06:39:24;;;;;;;5.57;3.33;;;17.70;49.00;;;16.69;46.43;98142.81;4994942;28;20824;-71
2023/05/28 06:41:51;;;;;;;4.90;3.20;;;17.20;48.80;;;17.06;45.25;98124.97;5021405;28;20501;-74
2023/05/28 06:44:18;;;;;;;5.90;4.00;;;17.30;49.00;;;17.03;45.93;98150.06;4994726;28;21037;-75
2023/05/28 06:46:45;;;;;;;3.70;3.17;;;17.40;49.10;;;17.23;46.05;98146.75;5019317;28;20463;-74
2023/05/28 06:49:13;;;;;;;4.73;3.30;;;17.50;49.60;;;17.19;45.80;98132.78;5001780;28;22391;-73
2023/05/28 06:51:42;;;;;;;8.50;3.87;;;17.60;49.60;;;17.11;46.13;98138.69;5004956;28;20462;-72
2023/05/28 06:54:09;;;;;;;4.57;3.70;;;17.40;49.40;;;17.36;46.17;98161.88;5007289;28;20536;-73
2023/05/28 06:56:36;;;;;;;3.53;3.23;;;17.50;49.80;;;17.38;46.25;98151.56;5007134;28;20477;-73
2023/05/28 06:59:04;;;;;;;4.47;3.20;;;17.50;50.30;;;17.28;45.70;98155.81;5005146;28;20466;-75
2023/05/28 07:01:31;;;;;;;5.30;3.37;;;17.50;49.60;;;17.33;45.17;98156.94;5008993;28;20478;-75
2023/05/28 07:04:00;;;;;;;5.27;3.40;;;17.60;49.20;;;17.83;44.25;98155.00;5004994;28;20486;-72
2023/05/28 07:06:27;;;;;;;9.57;4.00;;;17.80;49.20;;;17.88;44.93;98152.28;5001345;28;20457;-71
2023/05/28 07:08:56;;;;;;;4.63;3.07;;;18.10;49.50;;;17.81;44.18;98163.44;5002735;28;21019;-73
2023/05/28 07:11:23;;;;;;;4.90;2.97;;;18.10;49.00;;;18.08;42.95;98151.66;5021045;28;20443;-75
2023/05/28 07:13:52;;;;;;;6.20;3.47;;;18.20;48.40;;;18.26;42.68;98147.72;4999525;28;20958;-74
2023/05/28 07:16:19;;;;;;;4.13;2.87;;;18.30;48.30;;;18.41;42.67;98157.91;5018963;28;21212;-74
2023/05/28 07:18:47;;;;;;;5.17;3.83;;;18.50;48.40;;;17.94;43.28;98117.63;5022590;28;22039;-74
2023/05/28 07:21:15;;;;;;;5.70;3.23;;;18.50;48.30;;;18.38;42.85;98154.91;5018162;28;21115;-73
2023/05/28 07:23:42;;;;;;;6.50;3.63;;;18.60;48.30;;;18.18;43.19;98158.31;5015605;28;20900;-74
2023/05/28 07:26:11;;;;;;;4.10;3.27;;;18.50;48.10;;;18.17;42.34;98164.88;5013813;28;20572;-76
2023/05/28 07:28:38;;;;;;;5.43;3.27;;;18.40;47.70;;;18.19;42.52;98151.75;5017950;28;20462;-73
2023/05/28 07:31:06;;;;;;;3.93;2.70;;;18.40;47.90;;;18.71;41.83;98163.84;5021442;28;20513;-77
2023/05/28 07:33:33;;;;;;;7.00;3.20;;;18.60;48.00;;;18.49;41.95;98144.84;5008739;28;20474;-74
2023/05/28 07:36:01;;;;;;;4.50;3.17;;;18.70;47.70;;;18.78;42.03;98158.16;4998763;28;20443;-72
2023/05/28 07:38:28;;;;;;;4.67;3.43;;;18.80;48.00;;;18.96;41.71;98151.41;5014058;28;20459;-75
2023/05/28 07:40:55;;;;;;;6.00;2.80;;;19.00;47.90;;;19.08;41.28;98151.19;5001619;28;20459;-74
2023/05/28 07:43:24;;;;;;;6.67;3.27;;;19.20;47.70;;;19.08;41.04;98146.53;5018364;28;20537;-73
2023/05/28 07:45:52;;;;;;;4.37;2.90;;;19.20;47.60;;;19.21;41.45;98166.28;5025269;28;20473;-76
2023/05/28 07:48:19;;;;;;;4.20;3.10;;;19.40;47.80;;;19.49;40.43;98156.78;5015351;28;20452;-73
2023/05/28 07:50:46;;;;;;;4.30;3.00;;;19.50;47.40;;;19.19;40.07;98143.81;5012178;28;20474;-75
2023/05/28 07:53:13;;;;;;;4.60;3.13;;;19.50;46.80;;;19.23;40.00;98153.97;5003634;28;20467;-74
2023/05/28 07:55:41;;;;;;;3.80;3.20;;;19.50;46.50;;;19.45;40.77;98149.38;4997590;28;20469;-72
2023/05/28 07:58:08;;;;;;;4.20;2.90;;;19.60;47.40;;;19.63;40.01;98148.88;4997552;28;20460;-73
2023/05/28 08:00:37;;;;;;;5.60;2.90;;;19.70;47.20;;;19.60;39.87;98152.16;4988717;28;21352;-76
2023/05/28 08:03:04;;;;;;;8.20;3.77;;;19.80;46.90;;;19.63;40.48;98145.28;5015296;28;20489;-75
2023/05/28 08:05:33;;;;;;;5.30;3.10;;;19.80;47.30;;;19.67;39.94;98151.88;5017685;28;20493;-74
2023/05/28 08:08:00;;;;;;;3.67;2.93;;;19.70;47.20;;;19.71;38.68;98142.03;5011528;28;20573;-75
2023/05/28 08:10:27;;;;;;;4.37;2.93;;;19.80;46.20;;;19.56;38.76;98145.53;5017134;28;20551;-74
2023/05/28 08:12:55;;;;;;;3.80;3.20;;;19.70;45.90;;;19.67;38.28;98143.66;5015773;28;20490;-74
2023/05/28 08:15:23;;;;;;;5.03;2.93;;;19.70;45.50;;;19.72;37.39;98137.38;4998388;28;20544;-73
2023/05/28 08:17:52;;;;;;;5.20;3.03;;;19.90;45.20;;;19.81;37.39;98139.31;4998431;28;20982;-75
2023/05/28 08:20:19;;;;;;;6.57;3.30;;;19.90;45.10;;;20.14;37.49;98139.03;5018464;28;20458;-76
2023/05/28 08:22:46;;;;;;;6.30;2.87;;;20.10;45.50;;;20.03;37.33;98137.41;5015279;28;20493;-75
2023/05/28 08:25:14;;;;;;;6.87;2.73;;;20.10;45.10;;;20.21;37.38;98138.75;4999478;28;20447;-74
2023/05/28 08:27:41;;;;;;;4.33;2.83;;;20.20;45.30;;;20.00;36.59;98122.31;5016441;28;20485;-75
2023/05/28 08:30:09;;;;;;;7.17;2.53;;;20.20;44.50;;;20.19;36.23;98135.47;5017429;28;20463;-73
2023/05/28 08:32:36;;;;;;;6.63;3.40;;;20.30;44.20;;;20.07;36.71;98138.50;5004889;28;20458;-71
2023/05/28 08:35:06;;;;;;;4.57;2.93;;;20.20;44.30;;;20.16;36.11;98131.34;5001464;28;20470;-71
2023/05/28 08:37:33;;;;;;;4.73;2.60;;;20.20;44.10;;;20.35;36.25;98119.81;5014438;28;20458;-73
2023/05/28 08:40:01;;;;;;;4.83;2.60;;;20.40;44.60;;;20.35;37.36;98128.06;5016180;28;20470;-72
2023/05/28 08:42:28;;;;;;;5.30;3.00;;;20.40;45.10;;;20.15;36.81;98115.19;4979532;28;20477;-71
2023/05/28 08:44:56;;;;;;;3.83;2.67;;;20.20;44.70;;;19.95;37.53;98117.66;5003546;28;20458;-72
2023/05/28 08:47:24;;;;;;;2.63;2.40;;;20.10;44.80;;;20.15;37.17;98116.00;4996419;28;20972;-71
2023/05/28 08:49:55;;;;;;;5.20;2.90;;;20.10;44.80;;;20.27;36.20;98110.25;4998364;28;20465;-72
2023/05/28 08:52:25;;;;;;;4.87;2.73;;;20.30;44.40;;;20.34;36.16;98116.25;5013984;28;21063;-73
2023/05/28 08:54:52;;;;;;;5.50;3.20;;;20.40;44.10;;;20.58;36.46;98118.41;4995692;28;20469;-72
2023/05/28 08:57:21;;;;;;;6.83;3.10;;;20.50;44.60;;;20.75;37.01;98118.03;5017457;28;20466;-74
2023/05/28 08:59:48;;;;;;;7.90;2.80;;;20.70;45.10;;;21.16;35.84;98111.59;5012134;28;20466;-71
2023/05/28 09:02:17;;;;;;;5.00;2.40;;;21.00;44.90;;;20.98;35.86;98112.22;4990562;28;20483;-71
2023/05/28 09:04:46;;;;;;;3.47;2.80;;;21.10;44.50;;;20.55;35.70;98072.31;4992586;28;20465;-72
2023/05/28 09:07:13;;;;;;;4.63;2.97;;;21.00;44.20;;;20.90;35.64;98108.97;4997835;28;20480;-72
2023/05/28 09:09:42;;;;;;;5.67;2.70;;;20.90;44.00;;;20.85;35.41;98106.25;4997348;28;20605;-72
2023/05/28 09:12:12;;;;;;;4.10;2.70;;;20.90;43.90;;;20.82;35.84;98098.56;5013983;28;20593;-72
2023/05/28 09:14:41;;;;;;;4.30;2.90;;;20.90;43.90;;;21.23;35.25;98090.13;5008905;28;20452;-71
2023/05/28 09:17:09;;;;;;;6.03;3.23;;;21.10;44.20;;;21.58;34.65;98086.59;5001834;28;20465;-74
2023/05/28 09:19:38;;;;;;;4.10;2.40;;;21.50;44.10;;;21.51;35.30;98093.25;5025433;28;20495;-74
2023/05/28 09:22:08;;;;;;;3.80;2.60;;;21.60;44.10;;;21.26;35.39;98090.66;5010738;28;20469;-74
2023/05/28 09:24:35;;;;;;;3.83;2.40;;;21.40;44.00;;;21.22;35.36;98082.16;5017258;28;20934;-72
2023/05/28 09:27:04;;;;;;;3.23;2.90;;;21.30;44.00;;;21.19;35.39;98086.31;5020168;28;20955;-73
2023/05/28 09:29:32;;;;;;;3.90;2.60;;;21.20;44.00;;;21.37;35.79;98075.75;5026373;28;20515;-73
2023/05/28 09:32:04;;;;;;;3.57;2.70;;;21.40;44.60;;;21.43;34.22;98073.81;4999081;28;20467;-72
2023/05/28 09:34:33;;;;;;;2.87;2.53;;;21.50;43.40;;;21.50;34.14;98077.88;5011130;28;20510;-74
2023/05/28 09:37:02;;;;;;;4.70;3.20;;;21.60;43.20;;;21.44;33.40;98073.50;5007054;28;20549;-73
2023/05/28 09:39:29;;;;;;;5.03;3.10;;;21.60;42.70;;;21.65;32.98;98070.63;5009871;28;20468;-72
2023/05/28 09:42:09;;;;;;;5.80;2.80;;;21.70;42.30;;;21.71;31.77;98063.19;5021582;28;20475;-73
2023/05/28 09:44:40;;;;;;;3.53;2.20;;;21.80;41.80;;;21.68;31.56;98069.22;4995448;28;21019;-73
2023/05/28 09:47:14;;;;;;;2.30;2.10;;;21.70;41.10;;;21.59;30.82;98060.75;5011706;28;20460;-72
2023/05/28 09:49:44;;;;;;;3.93;2.40;;;21.70;40.60;;;21.32;31.08;98024.41;5016644;28;20463;-72
2023/05/28 09:52:18;;;;;;;4.63;2.47;;;21.70;40.50;;;21.68;30.19;98061.81;5014882;28;20553;-72
2023/05/28 09:54:51;;;;;;;2.33;1.90;;;21.70;39.70;;;21.88;29.37;98069.06;5010240;28;20516;-73
2023/05/28 09:57:24;;;;;;;3.93;2.50;;;21.80;39.40;;;22.02;30.03;98052.69;5002422;28;20458;-73
2023/05/28 09:59:55;;;;;;;3.47;2.87;;;22.00;40.10;;;21.92;30.64;98061.06;5000092;28;20978;-73
2023/05/28 10:02:34;;;;;;;2.60;2.30;;;22.00;40.10;;;21.99;29.70;98053.28;5020908;28;20915;-73
2023/05/28 10:05:08;;;;;;;3.60;2.43;;;22.10;39.90;;;21.95;29.98;98052.25;5007075;28;20464;-71
2023/05/28 10:07:36;;;;;;;4.53;3.00;;;22.10;39.80;;;22.05;30.37;98052.13;5012968;28;20532;-71
2023/05/28 10:10:05;;;;;;;5.03;2.57;;;22.10;40.10;;;22.19;29.92;98057.78;5011934;28;20951;-73
2023/05/28 10:12:34;;;;;;;7.33;3.13;;;22.20;39.80;;;22.24;29.79;98053.31;5018118;28;20464;-72
2023/05/28 10:15:05;;;;;;;3.00;2.17;;;22.30;39.90;;;22.25;28.56;98025.53;5010404;28;20468;-71
2023/05/28 10:17:33;;;;;;;3.87;3.33;;;22.40;39.40;;;22.31;29.12;98054.59;4993508;28;20497;-72
2023/05/28 10:20:00;;;;;;;3.77;2.77;;;22.30;39.10;;;21.97;29.21;98003.25;5006565;28;20552;-72
2023/05/28 10:22:30;;;;;;;5.03;2.17;;;22.30;39.00;;;22.06;29.34;98040.03;5022132;28;20557;-74
2023/05/28 10:24:58;;;;;;;4.00;2.30;;;22.20;39.10;;;21.86;28.89;98051.22;5012160;28;20451;-73